sensor_id;sensor_type;location;lat;lon;timestamp;temperature;humidity
52575;DHT22;38468;48.114;-1.684;2023-08-06T00:01:12;15.60;75.80
52575;DHT22;38468;48.114;-1.684;2023-08-06T00:03:12;15.50;76.00
52575;DHT22;38468;48.114;-1.684;2023-08-06T00:05:13;15.50;76.00
52575;DHT22;38468;48.114;-1.684;2023-08-06T00:07:14;15.60;76.00
52575;DHT22;38468;48.114;-1.684;2023-08-06T00:09:15;15.60;76.20
52575;DHT22;38468;48.114;-1.684;2023-08-06T00:11:16;15.50;76.00
52575;DHT22;38468;48.114;-1.684;2023-08-06T00:13:16;15.50;76.20
52575;DHT22;38468;48.114;-1.684;2023-08-06T00:15:17;15.50;76.30
52575;DHT22;38468;48.114;-1.684;2023-08-06T00:17:18;15.50;76.10
52575;DHT22;38468;48.114;-1.684;2023-08-06T00:19:18;15.50;76.20
52575;DHT22;38468;48.114;-1.684;2023-08-06T00:21:19;15.50;76.10
52575;DHT22;38468;48.114;-1.684;2023-08-06T00:23:20;15.50;76.40
52575;DHT22;38468;48.114;-1.684;2023-08-06T00:25:22;15.50;76.30
52575;DHT22;38468;48.114;-1.684;2023-08-06T00:27:23;15.50;76.30
52575;DHT22;38468;48.114;-1.684;2023-08-06T00:29:24;15.50;76.30
52575;DHT22;38468;48.114;-1.684;2023-08-06T00:31:24;15.40;76.90
52575;DHT22;38468;48.114;-1.684;2023-08-06T00:33:25;15.50;76.90
52575;DHT22;38468;48.114;-1.684;2023-08-06T00:35:26;15.50;76.40
52575;DHT22;38468;48.114;-1.684;2023-08-06T00:37:26;15.50;76.50
52575;DHT22;38468;48.114;-1.684;2023-08-06T00:39:27;15.50;76.50
52575;DHT22;38468;48.114;-1.684;2023-08-06T00:41:28;15.50;76.50
52575;DHT22;38468;48.114;-1.684;2023-08-06T00:43:29;15.50;76.40
52575;DHT22;38468;48.114;-1.684;2023-08-06T00:45:30;15.50;76.30
52575;DHT22;38468;48.114;-1.684;2023-08-06T00:47:34;15.50;76.50
52575;DHT22;38468;48.114;-1.684;2023-08-06T00:49:38;15.50;76.40
52575;DHT22;38468;48.114;-1.684;2023-08-06T00:51:39;15.50;76.60
52575;DHT22;38468;48.114;-1.684;2023-08-06T00:53:40;15.40;76.50
52575;DHT22;38468;48.114;-1.684;2023-08-06T00:55:42;15.40;76.80
52575;DHT22;38468;48.114;-1.684;2023-08-06T00:57:45;15.30;76.80
52575;DHT22;38468;48.114;-1.684;2023-08-06T00:59:45;15.40;76.70
52575;DHT22;38468;48.114;-1.684;2023-08-06T01:01:46;15.30;76.90
52575;DHT22;38468;48.114;-1.684;2023-08-06T01:03:47;15.30;76.80
52575;DHT22;38468;48.114;-1.684;2023-08-06T01:05:47;15.30;76.90
52575;DHT22;38468;48.114;-1.684;2023-08-06T01:10:45;15.20;77.00
52575;DHT22;38468;48.114;-1.684;2023-08-06T01:13:33;15.20;77.00
52575;DHT22;38468;48.114;-1.684;2023-08-06T01:15:35;15.30;76.80
52575;DHT22;38468;48.114;-1.684;2023-08-06T01:17:36;15.20;76.90
52575;DHT22;38468;48.114;-1.684;2023-08-06T01:19:37;15.20;76.80
52575;DHT22;38468;48.114;-1.684;2023-08-06T01:21:38;15.20;76.90
52575;DHT22;38468;48.114;-1.684;2023-08-06T01:23:38;15.20;77.00
52575;DHT22;38468;48.114;-1.684;2023-08-06T01:28:18;15.20;77.20
52575;DHT22;38468;48.114;-1.684;2023-08-06T01:30:24;15.10;77.50
52575;DHT22;38468;48.114;-1.684;2023-08-06T01:32:26;15.10;77.10
52575;DHT22;38468;48.114;-1.684;2023-08-06T01:34:30;15.10;77.40
52575;DHT22;38468;48.114;-1.684;2023-08-06T01:36:32;15.10;77.40
52575;DHT22;38468;48.114;-1.684;2023-08-06T01:38:32;15.00;77.60
52575;DHT22;38468;48.114;-1.684;2023-08-06T01:40:33;15.10;77.60
52575;DHT22;38468;48.114;-1.684;2023-08-06T01:42:35;15.00;77.60
52575;DHT22;38468;48.114;-1.684;2023-08-06T01:44:35;15.00;77.90
52575;DHT22;38468;48.114;-1.684;2023-08-06T01:46:36;15.00;78.00
52575;DHT22;38468;48.114;-1.684;2023-08-06T01:48:37;15.00;78.10
52575;DHT22;38468;48.114;-1.684;2023-08-06T01:50:37;15.00;78.00
52575;DHT22;38468;48.114;-1.684;2023-08-06T01:52:38;14.90;78.40
52575;DHT22;38468;48.114;-1.684;2023-08-06T01:54:39;14.90;78.60
52575;DHT22;38468;48.114;-1.684;2023-08-06T01:56:39;14.90;78.50
52575;DHT22;38468;48.114;-1.684;2023-08-06T01:58:40;14.90;78.70
52575;DHT22;38468;48.114;-1.684;2023-08-06T02:00:41;14.90;78.80
52575;DHT22;38468;48.114;-1.684;2023-08-06T02:02:42;14.80;78.90
52575;DHT22;38468;48.114;-1.684;2023-08-06T02:04:42;14.80;78.80
52575;DHT22;38468;48.114;-1.684;2023-08-06T02:06:43;14.80;79.00
52575;DHT22;38468;48.114;-1.684;2023-08-06T02:08:43;14.80;79.10
52575;DHT22;38468;48.114;-1.684;2023-08-06T02:10:44;14.80;78.90
52575;DHT22;38468;48.114;-1.684;2023-08-06T02:12:45;14.80;79.00
52575;DHT22;38468;48.114;-1.684;2023-08-06T02:14:46;14.70;79.60
52575;DHT22;38468;48.114;-1.684;2023-08-06T02:16:46;14.80;79.50
52575;DHT22;38468;48.114;-1.684;2023-08-06T02:18:47;14.70;79.60
52575;DHT22;38468;48.114;-1.684;2023-08-06T02:20:58;14.70;79.90
52575;DHT22;38468;48.114;-1.684;2023-08-06T02:22:58;14.70;79.80
52575;DHT22;38468;48.114;-1.684;2023-08-06T02:24:59;14.70;79.90
52575;DHT22;38468;48.114;-1.684;2023-08-06T02:27:00;14.60;79.90
52575;DHT22;38468;48.114;-1.684;2023-08-06T02:29:00;14.70;79.70
52575;DHT22;38468;48.114;-1.684;2023-08-06T02:31:01;14.60;80.10
52575;DHT22;38468;48.114;-1.684;2023-08-06T02:33:02;14.60;79.90
52575;DHT22;38468;48.114;-1.684;2023-08-06T02:35:02;14.60;79.80
52575;DHT22;38468;48.114;-1.684;2023-08-06T02:37:03;14.50;80.20
52575;DHT22;38468;48.114;-1.684;2023-08-06T02:39:04;14.50;80.10
52575;DHT22;38468;48.114;-1.684;2023-08-06T02:41:05;14.50;79.90
52575;DHT22;38468;48.114;-1.684;2023-08-06T02:43:05;14.50;79.70
52575;DHT22;38468;48.114;-1.684;2023-08-06T02:45:06;14.50;79.90
52575;DHT22;38468;48.114;-1.684;2023-08-06T02:47:07;14.40;80.20
52575;DHT22;38468;48.114;-1.684;2023-08-06T02:49:08;14.40;80.30
52575;DHT22;38468;48.114;-1.684;2023-08-06T02:51:08;14.50;80.30
52575;DHT22;38468;48.114;-1.684;2023-08-06T02:53:09;14.40;80.60
52575;DHT22;38468;48.114;-1.684;2023-08-06T02:55:10;14.40;80.80
52575;DHT22;38468;48.114;-1.684;2023-08-06T02:57:10;14.40;80.70
52575;DHT22;38468;48.114;-1.684;2023-08-06T02:59:12;14.40;80.70
52575;DHT22;38468;48.114;-1.684;2023-08-06T03:01:12;14.40;80.50
52575;DHT22;38468;48.114;-1.684;2023-08-06T03:03:14;14.40;80.60
52575;DHT22;38468;48.114;-1.684;2023-08-06T03:05:15;14.30;80.80
52575;DHT22;38468;48.114;-1.684;2023-08-06T03:07:15;14.20;80.90
52575;DHT22;38468;48.114;-1.684;2023-08-06T03:09:17;14.30;81.20
52575;DHT22;38468;48.114;-1.684;2023-08-06T03:11:17;14.30;81.00
52575;DHT22;38468;48.114;-1.684;2023-08-06T03:13:18;14.20;81.10
52575;DHT22;38468;48.114;-1.684;2023-08-06T03:15:19;14.20;81.20
52575;DHT22;38468;48.114;-1.684;2023-08-06T03:17:20;14.10;81.40
52575;DHT22;38468;48.114;-1.684;2023-08-06T03:19:20;14.20;81.10
52575;DHT22;38468;48.114;-1.684;2023-08-06T03:21:21;14.10;81.30
52575;DHT22;38468;48.114;-1.684;2023-08-06T03:23:22;14.00;81.60
52575;DHT22;38468;48.114;-1.684;2023-08-06T03:25:22;13.90;82.10
52575;DHT22;38468;48.114;-1.684;2023-08-06T03:27:23;14.00;82.20
52575;DHT22;38468;48.114;-1.684;2023-08-06T03:29:24;14.00;82.20
52575;DHT22;38468;48.114;-1.684;2023-08-06T03:31:24;14.00;81.70
52575;DHT22;38468;48.114;-1.684;2023-08-06T03:33:25;14.00;81.70
52575;DHT22;38468;48.114;-1.684;2023-08-06T03:35:26;14.00;81.50
52575;DHT22;38468;48.114;-1.684;2023-08-06T03:37:26;14.00;81.50
52575;DHT22;38468;48.114;-1.684;2023-08-06T03:39:27;14.10;81.50
52575;DHT22;38468;48.114;-1.684;2023-08-06T03:41:27;14.10;81.30
52575;DHT22;38468;48.114;-1.684;2023-08-06T03:43:28;14.10;81.40
52575;DHT22;38468;48.114;-1.684;2023-08-06T03:45:29;14.00;81.20
52575;DHT22;38468;48.114;-1.684;2023-08-06T03:47:30;14.00;81.40
52575;DHT22;38468;48.114;-1.684;2023-08-06T03:49:30;14.00;81.40
52575;DHT22;38468;48.114;-1.684;2023-08-06T03:51:31;14.00;81.80
52575;DHT22;38468;48.114;-1.684;2023-08-06T03:53:32;14.00;81.80
52575;DHT22;38468;48.114;-1.684;2023-08-06T03:55:32;14.00;81.80
52575;DHT22;38468;48.114;-1.684;2023-08-06T03:57:33;14.00;81.80
52575;DHT22;38468;48.114;-1.684;2023-08-06T03:59:34;14.00;81.80
52575;DHT22;38468;48.114;-1.684;2023-08-06T04:01:34;14.00;81.70
52575;DHT22;38468;48.114;-1.684;2023-08-06T04:03:35;14.00;81.70
52575;DHT22;38468;48.114;-1.684;2023-08-06T04:05:35;14.00;81.70
52575;DHT22;38468;48.114;-1.684;2023-08-06T04:07:36;14.00;81.70
52575;DHT22;38468;48.114;-1.684;2023-08-06T04:09:59;14.00;81.90
52575;DHT22;38468;48.114;-1.684;2023-08-06T04:12:00;13.90;82.20
52575;DHT22;38468;48.114;-1.684;2023-08-06T04:14:02;13.90;81.90
52575;DHT22;38468;48.114;-1.684;2023-08-06T04:16:03;13.90;82.10
52575;DHT22;38468;48.114;-1.684;2023-08-06T04:18:03;13.80;82.30
52575;DHT22;38468;48.114;-1.684;2023-08-06T04:20:05;13.70;82.60
52575;DHT22;38468;48.114;-1.684;2023-08-06T04:22:05;13.60;83.50
52575;DHT22;38468;48.114;-1.684;2023-08-06T04:24:07;13.60;83.50
52575;DHT22;38468;48.114;-1.684;2023-08-06T04:26:08;13.50;83.60
52575;DHT22;38468;48.114;-1.684;2023-08-06T04:28:08;13.60;83.30
52575;DHT22;38468;48.114;-1.684;2023-08-06T04:30:09;13.70;83.10
52575;DHT22;38468;48.114;-1.684;2023-08-06T04:32:12;13.70;82.90
52575;DHT22;38468;48.114;-1.684;2023-08-06T04:34:13;13.70;82.80
52575;DHT22;38468;48.114;-1.684;2023-08-06T04:36:14;13.70;82.80
52575;DHT22;38468;48.114;-1.684;2023-08-06T04:38:14;13.70;82.80
52575;DHT22;38468;48.114;-1.684;2023-08-06T04:40:15;13.70;83.10
52575;DHT22;38468;48.114;-1.684;2023-08-06T04:42:16;13.70;83.10
52575;DHT22;38468;48.114;-1.684;2023-08-06T04:44:16;13.70;82.90
52575;DHT22;38468;48.114;-1.684;2023-08-06T04:46:17;13.70;83.20
52575;DHT22;38468;48.114;-1.684;2023-08-06T04:48:17;13.70;83.10
52575;DHT22;38468;48.114;-1.684;2023-08-06T04:50:19;13.70;83.00
52575;DHT22;38468;48.114;-1.684;2023-08-06T04:52:20;13.80;82.80
52575;DHT22;38468;48.114;-1.684;2023-08-06T04:54:21;13.70;82.80
52575;DHT22;38468;48.114;-1.684;2023-08-06T04:56:21;13.70;82.90
52575;DHT22;38468;48.114;-1.684;2023-08-06T04:58:22;13.70;83.00
52575;DHT22;38468;48.114;-1.684;2023-08-06T05:00:23;13.70;83.00
52575;DHT22;38468;48.114;-1.684;2023-08-06T05:02:23;13.70;83.00
52575;DHT22;38468;48.114;-1.684;2023-08-06T05:04:24;13.80;83.10
52575;DHT22;38468;48.114;-1.684;2023-08-06T05:06:24;13.80;83.20
52575;DHT22;38468;48.114;-1.684;2023-08-06T05:08:25;13.80;83.30
52575;DHT22;38468;48.114;-1.684;2023-08-06T05:10:26;13.80;83.40
52575;DHT22;38468;48.114;-1.684;2023-08-06T05:12:27;13.90;83.20
52575;DHT22;38468;48.114;-1.684;2023-08-06T05:14:28;13.90;83.30
52575;DHT22;38468;48.114;-1.684;2023-08-06T05:16:28;13.90;83.40
52575;DHT22;38468;48.114;-1.684;2023-08-06T05:18:29;13.90;83.50
52575;DHT22;38468;48.114;-1.684;2023-08-06T05:20:31;13.90;83.40
52575;DHT22;38468;48.114;-1.684;2023-08-06T05:22:31;13.90;83.40
52575;DHT22;38468;48.114;-1.684;2023-08-06T05:24:32;14.00;83.30
52575;DHT22;38468;48.114;-1.684;2023-08-06T05:26:32;13.90;83.30
52575;DHT22;38468;48.114;-1.684;2023-08-06T05:28:34;13.90;83.20
52575;DHT22;38468;48.114;-1.684;2023-08-06T05:30:39;13.90;83.30
52575;DHT22;38468;48.114;-1.684;2023-08-06T05:32:39;13.90;83.30
52575;DHT22;38468;48.114;-1.684;2023-08-06T05:34:40;14.00;83.50
52575;DHT22;38468;48.114;-1.684;2023-08-06T05:36:42;14.00;83.50
52575;DHT22;38468;48.114;-1.684;2023-08-06T05:38:42;14.00;83.60
52575;DHT22;38468;48.114;-1.684;2023-08-06T05:40:43;14.00;83.60
52575;DHT22;38468;48.114;-1.684;2023-08-06T05:42:43;14.00;83.70
52575;DHT22;38468;48.114;-1.684;2023-08-06T05:44:44;14.00;83.60
52575;DHT22;38468;48.114;-1.684;2023-08-06T05:46:45;14.00;83.70
52575;DHT22;38468;48.114;-1.684;2023-08-06T05:48:45;14.00;83.80
52575;DHT22;38468;48.114;-1.684;2023-08-06T05:50:46;14.00;83.70
52575;DHT22;38468;48.114;-1.684;2023-08-06T05:52:47;14.10;83.70
52575;DHT22;38468;48.114;-1.684;2023-08-06T05:54:47;14.00;83.90
52575;DHT22;38468;48.114;-1.684;2023-08-06T05:56:48;14.00;84.00
52575;DHT22;38468;48.114;-1.684;2023-08-06T05:58:48;14.00;83.80
52575;DHT22;38468;48.114;-1.684;2023-08-06T06:00:52;14.00;83.50
52575;DHT22;38468;48.114;-1.684;2023-08-06T06:02:52;14.10;84.00
52575;DHT22;38468;48.114;-1.684;2023-08-06T06:04:53;14.20;83.70
52575;DHT22;38468;48.114;-1.684;2023-08-06T06:06:53;14.20;83.50
52575;DHT22;38468;48.114;-1.684;2023-08-06T06:08:54;14.20;83.60
52575;DHT22;38468;48.114;-1.684;2023-08-06T06:10:55;14.30;83.60
52575;DHT22;38468;48.114;-1.684;2023-08-06T06:12:56;14.40;83.50
52575;DHT22;38468;48.114;-1.684;2023-08-06T06:14:56;14.40;83.30
52575;DHT22;38468;48.114;-1.684;2023-08-06T06:16:57;14.40;83.40
52575;DHT22;38468;48.114;-1.684;2023-08-06T06:18:58;14.40;83.40
52575;DHT22;38468;48.114;-1.684;2023-08-06T06:20:58;14.50;83.30
52575;DHT22;38468;48.114;-1.684;2023-08-06T06:22:59;14.50;83.10
52575;DHT22;38468;48.114;-1.684;2023-08-06T06:24:59;14.60;83.10
52575;DHT22;38468;48.114;-1.684;2023-08-06T06:27:00;14.60;83.10
52575;DHT22;38468;48.114;-1.684;2023-08-06T06:29:01;14.70;83.00
52575;DHT22;38468;48.114;-1.684;2023-08-06T06:31:01;14.80;83.00
52575;DHT22;38468;48.114;-1.684;2023-08-06T06:33:03;14.80;82.90
52575;DHT22;38468;48.114;-1.684;2023-08-06T06:35:04;14.90;82.70
52575;DHT22;38468;48.114;-1.684;2023-08-06T06:37:05;14.90;82.90
52575;DHT22;38468;48.114;-1.684;2023-08-06T06:39:05;14.90;82.90
52575;DHT22;38468;48.114;-1.684;2023-08-06T06:41:06;14.90;82.80
52575;DHT22;38468;48.114;-1.684;2023-08-06T06:43:07;15.00;82.70
52575;DHT22;38468;48.114;-1.684;2023-08-06T06:45:08;14.90;82.70
52575;DHT22;38468;48.114;-1.684;2023-08-06T06:47:09;15.00;82.70
52575;DHT22;38468;48.114;-1.684;2023-08-06T06:49:09;15.10;82.40
52575;DHT22;38468;48.114;-1.684;2023-08-06T06:51:10;15.00;82.40
52575;DHT22;38468;48.114;-1.684;2023-08-06T06:53:11;15.10;82.40
52575;DHT22;38468;48.114;-1.684;2023-08-06T06:55:11;15.10;82.40
52575;DHT22;38468;48.114;-1.684;2023-08-06T06:57:12;15.20;82.40
52575;DHT22;38468;48.114;-1.684;2023-08-06T06:59:12;15.20;82.30
52575;DHT22;38468;48.114;-1.684;2023-08-06T07:01:14;15.20;82.10
52575;DHT22;38468;48.114;-1.684;2023-08-06T07:03:15;15.30;81.90
52575;DHT22;38468;48.114;-1.684;2023-08-06T07:05:16;15.30;82.00
52575;DHT22;38468;48.114;-1.684;2023-08-06T07:07:16;15.40;82.00
52575;DHT22;38468;48.114;-1.684;2023-08-06T07:09:17;15.40;82.00
52575;DHT22;38468;48.114;-1.684;2023-08-06T07:11:18;15.50;81.80
52575;DHT22;38468;48.114;-1.684;2023-08-06T07:13:18;15.50;81.60
52575;DHT22;38468;48.114;-1.684;2023-08-06T07:15:19;15.50;81.60
52575;DHT22;38468;48.114;-1.684;2023-08-06T07:17:19;15.50;81.40
52575;DHT22;38468;48.114;-1.684;2023-08-06T07:19:20;15.50;81.30
52575;DHT22;38468;48.114;-1.684;2023-08-06T07:21:21;15.50;81.50
52575;DHT22;38468;48.114;-1.684;2023-08-06T07:23:24;15.60;81.80
52575;DHT22;38468;48.114;-1.684;2023-08-06T07:25:25;15.70;81.60
52575;DHT22;38468;48.114;-1.684;2023-08-06T07:27:26;15.80;81.50
52575;DHT22;38468;48.114;-1.684;2023-08-06T07:29:26;15.90;81.50
52575;DHT22;38468;48.114;-1.684;2023-08-06T07:31:27;15.90;81.50
52575;DHT22;38468;48.114;-1.684;2023-08-06T07:33:28;16.00;81.10
52575;DHT22;38468;48.114;-1.684;2023-08-06T07:35:29;16.10;81.00
52575;DHT22;38468;48.114;-1.684;2023-08-06T07:37:29;16.10;81.00
52575;DHT22;38468;48.114;-1.684;2023-08-06T07:39:30;16.30;81.00
52575;DHT22;38468;48.114;-1.684;2023-08-06T07:41:30;16.40;80.70
52575;DHT22;38468;48.114;-1.684;2023-08-06T07:43:31;16.40;80.50
52575;DHT22;38468;48.114;-1.684;2023-08-06T07:45:36;16.50;80.20
52575;DHT22;38468;48.114;-1.684;2023-08-06T07:47:37;16.70;80.10
52575;DHT22;38468;48.114;-1.684;2023-08-06T07:49:38;16.80;79.60
52575;DHT22;38468;48.114;-1.684;2023-08-06T07:51:38;16.80;79.00
52575;DHT22;38468;48.114;-1.684;2023-08-06T07:53:39;16.90;78.60
52575;DHT22;38468;48.114;-1.684;2023-08-06T07:55:39;17.00;78.50
52575;DHT22;38468;48.114;-1.684;2023-08-06T07:57:40;17.00;78.10
52575;DHT22;38468;48.114;-1.684;2023-08-06T07:59:41;17.00;77.90
52575;DHT22;38468;48.114;-1.684;2023-08-06T08:01:41;17.00;77.60
52575;DHT22;38468;48.114;-1.684;2023-08-06T08:03:42;17.10;77.70
52575;DHT22;38468;48.114;-1.684;2023-08-06T08:05:43;17.20;77.60
52575;DHT22;38468;48.114;-1.684;2023-08-06T08:07:44;17.10;77.40
52575;DHT22;38468;48.114;-1.684;2023-08-06T08:09:45;17.10;77.00
52575;DHT22;38468;48.114;-1.684;2023-08-06T08:11:45;17.10;76.80
52575;DHT22;38468;48.114;-1.684;2023-08-06T08:13:47;17.10;76.50
52575;DHT22;38468;48.114;-1.684;2023-08-06T08:15:47;17.20;76.40
52575;DHT22;38468;48.114;-1.684;2023-08-06T08:17:48;17.20;76.30
52575;DHT22;38468;48.114;-1.684;2023-08-06T08:19:49;17.20;76.50
52575;DHT22;38468;48.114;-1.684;2023-08-06T08:21:50;17.20;76.40
52575;DHT22;38468;48.114;-1.684;2023-08-06T08:23:51;17.40;76.40
52575;DHT22;38468;48.114;-1.684;2023-08-06T08:25:52;17.40;76.50
52575;DHT22;38468;48.114;-1.684;2023-08-06T08:27:53;17.40;76.00
52575;DHT22;38468;48.114;-1.684;2023-08-06T08:29:54;17.50;75.90
52575;DHT22;38468;48.114;-1.684;2023-08-06T08:31:55;17.50;75.60
52575;DHT22;38468;48.114;-1.684;2023-08-06T08:33:55;17.60;76.00
52575;DHT22;38468;48.114;-1.684;2023-08-06T08:35:56;17.70;75.40
52575;DHT22;38468;48.114;-1.684;2023-08-06T08:37:57;17.70;75.20
52575;DHT22;38468;48.114;-1.684;2023-08-06T08:39:57;17.70;75.00
52575;DHT22;38468;48.114;-1.684;2023-08-06T08:41:58;17.70;74.40
52575;DHT22;38468;48.114;-1.684;2023-08-06T08:43:59;17.70;74.50
52575;DHT22;38468;48.114;-1.684;2023-08-06T08:46:02;17.90;74.60
52575;DHT22;38468;48.114;-1.684;2023-08-06T08:48:04;18.00;74.50
52575;DHT22;38468;48.114;-1.684;2023-08-06T08:50:06;18.10;73.70
52575;DHT22;38468;48.114;-1.684;2023-08-06T08:52:08;18.20;73.70
52575;DHT22;38468;48.114;-1.684;2023-08-06T08:54:13;18.30;72.20
52575;DHT22;38468;48.114;-1.684;2023-08-06T08:56:15;18.20;72.20
52575;DHT22;38468;48.114;-1.684;2023-08-06T08:58:16;18.30;71.40
52575;DHT22;38468;48.114;-1.684;2023-08-06T09:00:17;18.40;71.30
52575;DHT22;38468;48.114;-1.684;2023-08-06T09:02:18;18.50;70.10
52575;DHT22;38468;48.114;-1.684;2023-08-06T09:04:22;18.50;69.90
52575;DHT22;38468;48.114;-1.684;2023-08-06T09:06:25;18.70;69.90
52575;DHT22;38468;48.114;-1.684;2023-08-06T09:08:43;19.00;70.30
52575;DHT22;38468;48.114;-1.684;2023-08-06T09:10:49;19.20;69.30
52575;DHT22;38468;48.114;-1.684;2023-08-06T09:12:51;19.30;68.30
52575;DHT22;38468;48.114;-1.684;2023-08-06T09:14:54;19.50;68.70
52575;DHT22;38468;48.114;-1.684;2023-08-06T09:16:54;19.50;68.10
52575;DHT22;38468;48.114;-1.684;2023-08-06T09:19:09;19.50;67.90
52575;DHT22;38468;48.114;-1.684;2023-08-06T09:21:14;19.60;65.20
52575;DHT22;38468;48.114;-1.684;2023-08-06T09:23:16;19.70;65.80
52575;DHT22;38468;48.114;-1.684;2023-08-06T09:25:22;19.70;65.50
52575;DHT22;38468;48.114;-1.684;2023-08-06T09:27:24;19.60;65.50
52575;DHT22;38468;48.114;-1.684;2023-08-06T09:29:31;19.60;64.90
52575;DHT22;38468;48.114;-1.684;2023-08-06T09:31:45;19.40;65.60
52575;DHT22;38468;48.114;-1.684;2023-08-06T09:33:46;19.50;65.10
52575;DHT22;38468;48.114;-1.684;2023-08-06T09:35:49;19.50;65.10
52575;DHT22;38468;48.114;-1.684;2023-08-06T09:37:50;19.60;65.00
52575;DHT22;38468;48.114;-1.684;2023-08-06T09:39:51;19.80;65.60
52575;DHT22;38468;48.114;-1.684;2023-08-06T09:41:58;20.00;65.40
52575;DHT22;38468;48.114;-1.684;2023-08-06T09:44:00;20.10;64.80
52575;DHT22;38468;48.114;-1.684;2023-08-06T09:46:00;20.20;63.70
52575;DHT22;38468;48.114;-1.684;2023-08-06T09:48:08;20.20;63.20
52575;DHT22;38468;48.114;-1.684;2023-08-06T09:50:19;20.20;62.40
52575;DHT22;38468;48.114;-1.684;2023-08-06T09:52:21;20.20;62.00
52575;DHT22;38468;48.114;-1.684;2023-08-06T09:54:23;20.20;61.70
52575;DHT22;38468;48.114;-1.684;2023-08-06T09:56:23;20.20;61.30
52575;DHT22;38468;48.114;-1.684;2023-08-06T09:58:27;20.30;61.80
52575;DHT22;38468;48.114;-1.684;2023-08-06T10:00:27;20.20;61.60
52575;DHT22;38468;48.114;-1.684;2023-08-06T10:02:29;20.20;62.60
52575;DHT22;38468;48.114;-1.684;2023-08-06T10:04:30;20.00;60.00
52575;DHT22;38468;48.114;-1.684;2023-08-06T10:06:34;20.00;60.10
52575;DHT22;38468;48.114;-1.684;2023-08-06T10:08:38;20.10;60.90
52575;DHT22;38468;48.114;-1.684;2023-08-06T10:10:41;20.00;61.20
52575;DHT22;38468;48.114;-1.684;2023-08-06T10:12:48;20.10;61.80
52575;DHT22;38468;48.114;-1.684;2023-08-06T10:14:50;20.20;61.60
52575;DHT22;38468;48.114;-1.684;2023-08-06T10:16:54;20.30;61.60
52575;DHT22;38468;48.114;-1.684;2023-08-06T10:18:57;20.40;61.80
52575;DHT22;38468;48.114;-1.684;2023-08-06T10:21:00;20.50;61.30
52575;DHT22;38468;48.114;-1.684;2023-08-06T10:23:03;20.70;61.60
52575;DHT22;38468;48.114;-1.684;2023-08-06T10:25:04;20.80;60.60
52575;DHT22;38468;48.114;-1.684;2023-08-06T10:27:06;20.90;60.20
52575;DHT22;38468;48.114;-1.684;2023-08-06T10:29:35;21.00;59.90
52575;DHT22;38468;48.114;-1.684;2023-08-06T10:31:58;20.90;59.40
52575;DHT22;38468;48.114;-1.684;2023-08-06T10:33:59;21.00;59.80
52575;DHT22;38468;48.114;-1.684;2023-08-06T10:36:03;21.00;58.90
52575;DHT22;38468;48.114;-1.684;2023-08-06T10:40:11;21.10;58.90
52575;DHT22;38468;48.114;-1.684;2023-08-06T10:42:30;21.10;58.00
52575;DHT22;38468;48.114;-1.684;2023-08-06T10:44:30;21.10;57.20
52575;DHT22;38468;48.114;-1.684;2023-08-06T10:46:31;21.10;57.20
52575;DHT22;38468;48.114;-1.684;2023-08-06T10:48:38;21.10;57.30
52575;DHT22;38468;48.114;-1.684;2023-08-06T10:50:39;21.20;57.30
52575;DHT22;38468;48.114;-1.684;2023-08-06T10:52:40;21.20;56.60
52575;DHT22;38468;48.114;-1.684;2023-08-06T10:54:41;21.30;56.80
52575;DHT22;38468;48.114;-1.684;2023-08-06T10:56:42;21.30;53.40
52575;DHT22;38468;48.114;-1.684;2023-08-06T10:58:46;21.50;56.30
52575;DHT22;38468;48.114;-1.684;2023-08-06T11:00:47;21.70;56.00
52575;DHT22;38468;48.114;-1.684;2023-08-06T11:02:48;21.70;55.10
52575;DHT22;38468;48.114;-1.684;2023-08-06T11:04:49;21.60;54.80
52575;DHT22;38468;48.114;-1.684;2023-08-06T11:06:53;21.50;54.80
52575;DHT22;38468;48.114;-1.684;2023-08-06T11:08:55;21.50;55.40
52575;DHT22;38468;48.114;-1.684;2023-08-06T11:10:56;21.40;55.40
52575;DHT22;38468;48.114;-1.684;2023-08-06T11:13:07;21.30;56.20
52575;DHT22;38468;48.114;-1.684;2023-08-06T11:15:08;21.20;55.70
52575;DHT22;38468;48.114;-1.684;2023-08-06T11:17:09;21.20;57.30
52575;DHT22;38468;48.114;-1.684;2023-08-06T11:19:10;21.20;56.60
52575;DHT22;38468;48.114;-1.684;2023-08-06T11:21:11;21.40;57.10
52575;DHT22;38468;48.114;-1.684;2023-08-06T11:23:13;21.50;56.70
52575;DHT22;38468;48.114;-1.684;2023-08-06T11:25:14;21.70;56.60
52575;DHT22;38468;48.114;-1.684;2023-08-06T11:27:16;21.90;56.00
52575;DHT22;38468;48.114;-1.684;2023-08-06T11:29:17;22.00;56.30
52575;DHT22;38468;48.114;-1.684;2023-08-06T11:31:21;22.20;55.90
52575;DHT22;38468;48.114;-1.684;2023-08-06T11:33:26;22.00;54.30
52575;DHT22;38468;48.114;-1.684;2023-08-06T11:35:27;22.10;54.60
52575;DHT22;38468;48.114;-1.684;2023-08-06T11:37:28;22.10;55.30
52575;DHT22;38468;48.114;-1.684;2023-08-06T11:39:28;22.10;55.00
52575;DHT22;38468;48.114;-1.684;2023-08-06T11:41:29;22.00;54.60
52575;DHT22;38468;48.114;-1.684;2023-08-06T11:43:30;21.80;55.40
52575;DHT22;38468;48.114;-1.684;2023-08-06T11:45:34;21.70;55.80
52575;DHT22;38468;48.114;-1.684;2023-08-06T11:47:38;21.80;55.80
52575;DHT22;38468;48.114;-1.684;2023-08-06T11:49:41;21.70;55.70
52575;DHT22;38468;48.114;-1.684;2023-08-06T11:51:45;21.60;55.70
52575;DHT22;38468;48.114;-1.684;2023-08-06T11:53:49;21.60;56.10
52575;DHT22;38468;48.114;-1.684;2023-08-06T11:55:50;21.70;56.60
52575;DHT22;38468;48.114;-1.684;2023-08-06T11:57:52;21.70;55.70
52575;DHT22;38468;48.114;-1.684;2023-08-06T11:59:53;21.80;55.60
52575;DHT22;38468;48.114;-1.684;2023-08-06T12:01:54;22.00;55.60
52575;DHT22;38468;48.114;-1.684;2023-08-06T12:03:59;22.00;54.80
52575;DHT22;38468;48.114;-1.684;2023-08-06T12:05:59;22.10;53.90
52575;DHT22;38468;48.114;-1.684;2023-08-06T12:08:02;22.20;53.50
52575;DHT22;38468;48.114;-1.684;2023-08-06T12:10:03;22.40;53.00
52575;DHT22;38468;48.114;-1.684;2023-08-06T12:12:04;22.60;52.40
52575;DHT22;38468;48.114;-1.684;2023-08-06T12:14:04;22.50;51.80
52575;DHT22;38468;48.114;-1.684;2023-08-06T12:16:05;22.60;52.60
52575;DHT22;38468;48.114;-1.684;2023-08-06T12:18:06;22.50;51.90
52575;DHT22;38468;48.114;-1.684;2023-08-06T12:20:07;22.50;51.20
52575;DHT22;38468;48.114;-1.684;2023-08-06T12:22:08;22.50;51.10
52575;DHT22;38468;48.114;-1.684;2023-08-06T12:24:09;22.30;51.50
52575;DHT22;38468;48.114;-1.684;2023-08-06T12:26:10;22.20;52.10
52575;DHT22;38468;48.114;-1.684;2023-08-06T12:28:11;22.20;52.30
52575;DHT22;38468;48.114;-1.684;2023-08-06T12:30:13;22.20;52.60
52575;DHT22;38468;48.114;-1.684;2023-08-06T12:32:14;22.40;53.90
52575;DHT22;38468;48.114;-1.684;2023-08-06T12:34:15;22.60;53.10
52575;DHT22;38468;48.114;-1.684;2023-08-06T12:36:15;22.80;53.20
52575;DHT22;38468;48.114;-1.684;2023-08-06T12:38:16;22.70;50.70
52575;DHT22;38468;48.114;-1.684;2023-08-06T12:40:17;22.90;51.30
52575;DHT22;38468;48.114;-1.684;2023-08-06T12:42:17;23.00;50.10
52575;DHT22;38468;48.114;-1.684;2023-08-06T12:44:18;23.00;49.10